Time;durP1;ratioP1;P1;durP2;ratioP2;P2;SDS_P1;SDS_P2;PMS_P1;PMS_P2;Temp;Humidity;BMP_temperature;BMP_pressure;BME280_temperature;BME280_humidity;BME280_pressure;Samples;Min_cycle;Max_cycle;Signal;HPM_P1;HPM_P2
2023/07/16 00:01:49;;;;;;;3.47;3.17;;;;;;;19.64;100.00;97920.03;5053619;28;20208;-85
2023/07/16 00:04:15;;;;;;;3.97;2.93;;;;;;;19.55;100.00;97930.91;5053356;28;20232;-85
2023/07/16 00:06:42;;;;;;;2.60;2.40;;;;;;;19.50;100.00;97930.59;5052272;28;20610;-85
2023/07/16 00:09:08;;;;;;;2.17;1.97;;;;;;;19.37;100.00;97939.13;5052581;28;20605;-85
2023/07/16 00:11:35;;;;;;;3.30;2.60;;;;;;;19.27;100.00;97943.78;5053155;28;20208;-86
2023/07/16 00:14:03;;;;;;;2.37;2.17;;;;;;;19.26;100.00;97936.75;5053414;28;20204;-85
2023/07/16 00:16:29;;;;;;;3.40;2.17;;;;;;;19.28;100.00;97940.13;5053410;28;20208;-86
2023/07/16 00:18:56;;;;;;;3.83;2.30;;;;;;;19.24;100.00;97928.03;5053135;28;20236;-85
2023/07/16 00:21:22;;;;;;;3.73;2.37;;;;;;;19.26;100.00;97936.75;5052379;28;20216;-86
2023/07/16 00:23:49;;;;;;;2.60;2.00;;;;;;;19.19;100.00;97933.00;5053036;28;20212;-85
2023/07/16 00:26:15;;;;;;;3.27;2.00;;;;;;;19.16;100.00;97930.69;5052646;28;20249;-85
2023/07/16 00:28:42;;;;;;;2.20;2.00;;;;;;;19.18;100.00;97928.66;5052847;28;20235;-85
2023/07/16 00:31:10;;;;;;;2.90;1.90;;;;;;;19.15;100.00;97918.25;5052370;28;20234;-85
2023/07/16 00:33:37;;;;;;;2.10;1.87;;;;;;;19.13;100.00;97935.53;5052727;28;20215;-85
2023/07/16 00:36:03;;;;;;;2.30;2.10;;;;;;;19.05;100.00;97947.06;5052858;28;20587;-85
2023/07/16 00:38:31;;;;;;;2.20;2.00;;;;;;;19.06;100.00;97946.03;5052585;28;20251;-85
2023/07/16 00:40:57;;;;;;;2.23;1.73;;;;;;;19.05;100.00;97955.09;5051879;28;20308;-85
2023/07/16 00:43:24;;;;;;;2.57;1.90;;;;;;;19.05;100.00;97948.88;5052510;28;20207;-85
2023/07/16 00:45:50;;;;;;;2.03;1.73;;;;;;;19.05;100.00;97955.09;5052612;28;20239;-85
2023/07/16 00:48:19;;;;;;;3.70;1.67;;;;;;;18.97;100.00;97962.25;5052450;28;20228;-85
2023/07/16 00:50:46;;;;;;;2.10;1.90;;;;;;;19.00;100.00;97961.91;5051791;28;20585;-85
2023/07/16 00:53:13;;;;;;;1.80;1.70;;;;;;;19.07;100.00;97952.25;5052269;28;20408;-85
2023/07/16 00:55:40;;;;;;;3.27;1.90;;;;;;;19.08;100.00;97943.22;5052505;28;20534;-85
2023/07/16 00:58:08;;;;;;;2.90;1.90;;;;;;;19.12;100.00;97936.50;5052375;28;20240;-85
2023/07/16 01:00:35;;;;;;;2.40;2.00;;;;;;;19.11;100.00;97933.00;5050847;28;20208;-86
2023/07/16 01:03:03;;;;;;;1.93;1.77;;;;;;;19.13;100.00;97925.63;5052251;28;20212;-85
2023/07/16 01:05:37;;;;;;;2.10;1.80;;;;;;;19.10;100.00;97931.34;5052127;28;20234;-85
2023/07/16 01:08:07;;;;;;;2.00;1.67;;;;;;;19.08;100.00;97952.06;5051971;28;20224;-85
2023/07/16 01:10:34;;;;;;;1.70;1.60;;;;;;;19.14;100.00;97972.03;5051371;28;20207;-85
2023/07/16 01:13:01;;;;;;;3.63;2.10;;;;;;;19.11;100.00;97986.59;5051914;28;20227;-85
2023/07/16 01:15:28;;;;;;;2.60;2.03;;;;;;;19.11;100.00;97986.59;5052020;28;20203;-85
2023/07/16 01:17:54;;;;;;;1.93;1.80;;;;;;;19.08;100.00;97989.56;5051558;28;20223;-86
2023/07/16 01:20:21;;;;;;;2.27;1.90;;;;;;;19.05;100.00;97987.22;5051034;28;20215;-85
2023/07/16 01:23:17;;;;;;;2.30;1.70;;;;;;;19.09;100.00;97999.28;5051897;28;20310;-85
2023/07/16 01:26:02;;;;;;;1.90;1.80;;;;;;;19.09;100.00;97985.88;5051820;28;20600;-85
2023/07/16 01:28:49;;;;;;;2.63;2.00;;;;;;;19.03;100.00;97989.22;5051581;28;20380;-85
2023/07/16 01:31:18;;;;;;;1.87;1.67;;;;;;;19.03;100.00;97986.53;5051339;28;20207;-85
2023/07/16 01:33:46;;;;;;;1.80;1.70;;;;;;;19.00;100.00;97978.00;5051775;28;20204;-85
2023/07/16 01:36:13;;;;;;;3.53;1.60;;;;;;;18.96;100.00;97990.88;5051638;28;20208;-85
2023/07/16 01:38:40;;;;;;;2.67;1.77;;;;;;;18.96;100.00;97996.22;5051391;28;20228;-85
2023/07/16 01:41:07;;;;;;;2.03;1.83;;;;;;;18.93;100.00;97988.53;5050632;28;20204;-85
2023/07/16 01:43:33;;;;;;;3.93;2.00;;;;;;;18.97;100.00;97994.41;5051654;28;20208;-85
2023/07/16 01:46:00;;;;;;;2.53;2.13;;;;;;;18.93;100.00;98009.94;5051347;28;20239;-79
2023/07/16 01:48:32;;;;;;;1.93;1.77;;;;;;;19.04;100.00;98000.78;5051424;28;20223;-82
2023/07/16 01:50:58;;;;;;;1.93;1.73;;;;;;;18.96;100.00;97998.91;5050822;28;20219;-84
2023/07/16 01:53:25;;;;;;;2.57;2.23;;;;;;;18.89;100.00;97992.50;5051283;28;20211;-84
2023/07/16 01:55:51;;;;;;;2.00;1.83;;;;;;;18.98;100.00;97980.84;5051461;28;20219;-84
2023/07/16 01:58:18;;;;;;;2.70;1.93;;;;;;;18.93;100.00;97972.47;5051413;28;20234;-84
2023/07/16 02:00:45;;;;;;;2.30;1.90;;;;;;;18.93;100.00;97972.47;5050637;28;20204;-84
2023/07/16 02:03:12;;;;;;;2.30;1.43;;;;;;;18.81;100.00;97995.16;5051340;28;20246;-84
2023/07/16 02:05:40;;;;;;;2.30;1.53;;;;;;;18.77;100.00;98012.53;5051214;28;20314;-84
2023/07/16 02:08:06;;;;;;;1.60;1.50;;;;;;;18.75;100.00;98030.63;5051027;28;20597;-84
2023/07/16 02:10:33;;;;;;;2.00;1.70;;;;;;;18.73;100.00;98013.03;5050351;28;20219;-84
2023/07/16 02:12:59;;;;;;;1.60;1.50;;;;;;;18.71;100.00;98020.38;5051035;28;20691;-84
2023/07/16 02:15:26;;;;;;;1.60;1.50;;;;;;;18.57;100.00;98037.00;5051689;28;20205;-84
2023/07/16 02:17:52;;;;;;;2.43;1.60;;;;;;;18.54;100.00;98030.13;5051143;28;20235;-84
2023/07/16 02:20:19;;;;;;;3.13;1.50;;;;;;;18.44;100.00;98016.03;5050476;28;20207;-84
2023/07/16 02:22:47;;;;;;;1.70;1.60;;;;;;;18.40;100.00;98017.34;5050977;28;20207;-84
2023/07/16 02:25:13;;;;;;;2.53;1.60;;;;;;;18.42;100.00;98033.25;5051159;28;20240;-84
2023/07/16 02:27:40;;;;;;;2.53;1.70;;;;;;;18.38;100.00;98029.19;5050745;28;20243;-84
2023/07/16 02:30:07;;;;;;;3.27;1.60;;;;;;;18.35;100.00;98041.06;5052078;28;20207;-84
2023/07/16 02:32:34;;;;;;;3.40;1.60;;;;;;;18.33;100.00;98037.69;5054952;28;20212;-84
2023/07/16 02:35:01;;;;;;;2.73;1.30;;;;;;;18.32;100.00;98045.88;5055096;28;20303;-84
2023/07/16 02:37:27;;;;;;;3.27;1.80;;;;;;;18.31;100.00;98066.47;5054996;28;20234;-84
2023/07/16 02:39:55;;;;;;;2.20;1.70;;;;;;;18.29;100.00;98064.91;5054164;28;20639;-81
2023/07/16 02:42:22;;;;;;;2.40;1.37;;;;;;;18.27;100.00;98054.34;5055155;28;20214;-84
2023/07/16 02:44:48;;;;;;;2.23;1.50;;;;;;;18.27;100.00;98059.69;5054859;28;20219;-84
2023/07/16 02:47:14;;;;;;;2.17;1.43;;;;;;;18.24;100.00;98043.13;5054721;28;20239;-84
2023/07/16 02:49:41;;;;;;;2.97;1.70;;;;;;;18.19;100.00;98042.75;5054015;28;20211;-85
2023/07/16 02:52:08;;;;;;;2.90;1.80;;;;;;;18.19;100.00;98046.25;5054527;28;20219;-84
2023/07/16 02:54:36;;;;;;;2.33;1.67;;;;;;;18.23;100.00;98058.31;5054906;28;20462;-84
2023/07/16 02:57:06;;;;;;;2.80;1.90;;;;;;;18.20;100.00;98053.28;5054629;28;20590;-84
2023/07/16 02:59:32;;;;;;;2.07;1.60;;;;;;;18.15;100.00;98054.72;5054023;28;20212;-84
2023/07/16 03:01:59;;;;;;;2.37;1.70;;;;;;;18.08;100.00;98043.81;5054499;28;20208;-84
2023/07/16 03:04:25;;;;;;;2.13;1.50;;;;;;;18.07;100.00;98047.50;5054403;28;20215;-84
2023/07/16 03:06:52;;;;;;;3.97;1.83;;;;;;;18.13;100.00;98068.28;5054460;28;20236;-84
2023/07/16 03:09:18;;;;;;;3.23;1.50;;;;;;;18.11;100.00;98064.91;5053631;28;20679;-84
2023/07/16 03:11:45;;;;;;;2.03;1.50;;;;;;;18.07;100.00;98074.25;5054307;28;20211;-84
2023/07/16 03:14:13;;;;;;;1.73;1.63;;;;;;;18.00;100.00;98083.88;5054272;28;20585;-84
2023/07/16 03:16:39;;;;;;;2.60;1.40;;;;;;;17.99;100.00;98070.66;5054257;28;20208;-85
2023/07/16 03:19:06;;;;;;;1.60;1.50;;;;;;;17.96;100.00;98087.84;5053864;28;20606;-84
2023/07/16 03:21:32;;;;;;;2.30;1.80;;;;;;;17.95;100.00;98090.66;5053691;28;20215;-84
2023/07/16 03:23:59;;;;;;;4.47;1.83;;;;;;;17.98;100.00;98079.69;5054216;28;20215;-84
2023/07/16 03:26:25;;;;;;;2.50;1.80;;;;;;;18.00;100.00;98099.06;5054001;28;20231;-85
2023/07/16 03:28:52;;;;;;;1.97;1.63;;;;;;;18.02;100.00;98113.13;5081233;22;20706;-87
2023/07/16 03:31:19;;;;;;;3.00;1.70;;;;;;;18.00;100.00;98115.97;5073761;28;20211;-87
2023/07/16 03:33:46;;;;;;;1.97;1.80;;;;;;;17.96;100.00;98109.25;5074284;28;20220;-87
2023/07/16 03:36:12;;;;;;;2.77;1.93;;;;;;;17.93;100.00;98098.84;5074580;28;20203;-87
2023/07/16 03:38:39;;;;;;;1.67;1.57;;;;;;;17.91;100.00;98100.00;5074207;28;20238;-87
2023/07/16 03:41:05;;;;;;;3.20;1.93;;;;;;;17.88;100.00;98114.53;5073536;28;20207;-87
2023/07/16 03:43:32;;;;;;;3.00;2.03;;;;;;;17.88;100.00;98141.25;5074035;28;20669;-87
2023/07/16 03:45:58;;;;;;;2.83;1.80;;;;;;;17.88;100.00;98127.88;5073945;28;20322;-87
2023/07/16 03:48:26;;;;;;;2.47;1.80;;;;;;;17.82;100.00;98125.81;5074320;28;20729;-87
2023/07/16 03:50:53;;;;;;;2.33;2.00;;;;;;;17.80;100.00;98119.75;5074373;28;20218;-87
2023/07/16 03:53:19;;;;;;;2.80;1.90;;;;;;;17.77;100.00;98141.47;5074408;28;20208;-87
2023/07/16 03:55:46;;;;;;;4.50;2.23;;;;;;;17.79;100.00;98147.50;5074404;28;20590;-87
2023/07/16 03:58:12;;;;;;;1.90;1.70;;;;;;;17.80;100.00;98151.03;5074187;28;20596;-87
2023/07/16 04:00:39;;;;;;;4.07;2.10;;;;;;;17.74;100.00;98155.13;5073723;28;20215;-87
2023/07/16 04:03:05;;;;;;;2.13;1.90;;;;;;;17.76;100.00;98166.53;5074259;28;20214;-87
2023/07/16 04:05:33;;;;;;;4.13;2.30;;;;;;;17.80;100.00;98170.56;5074006;28;20231;-87
2023/07/16 04:07:59;;;;;;;2.30;1.90;;;;;;;17.78;100.00;98191.25;5074147;28;20228;-86
2023/07/16 04:10:26;;;;;;;3.33;1.90;;;;;;;17.78;100.00;98180.56;5073331;28;20247;-87
2023/07/16 04:12:52;;;;;;;2.40;2.00;;;;;;;17.80;100.00;98194.63;5073849;28;20207;-87
2023/07/16 04:15:19;;;;;;;3.67;2.17;;;;;;;17.76;100.00;98193.25;5073932;28;20215;-86
2023/07/16 04:17:45;;;;;;;3.60;2.20;;;;;;;17.80;100.00;98185.78;5073622;28;20231;-87
2023/07/16 04:20:12;;;;;;;5.30;2.50;;;;;;;17.85;100.00;98176.31;5073333;28;20215;-87
2023/07/16 04:22:40;;;;;;;4.17;2.10;;;;;;;17.79;100.00;98176.06;5073697;28;20216;-87
2023/07/16 04:25:07;;;;;;;2.30;2.10;;;;;;;17.75;100.00;98170.16;5073633;28;20358;-86
2023/07/16 04:27:34;;;;;;;3.83;1.90;;;;;;;17.73;100.00;98161.47;5073328;28;20235;-87
2023/07/16 04:30:00;;;;;;;3.33;1.93;;;;;;;17.74;100.00;98168.47;5072544;28;20215;-87
2023/07/16 04:32:27;;;;;;;3.67;2.00;;;;;;;17.70;100.00;98164.44;5073612;28;20219;-86
2023/07/16 04:34:53;;;;;;;2.30;2.10;;;;;;;17.71;100.00;98167.94;5073569;28;20702;-85
2023/07/16 04:37:20;;;;;;;2.47;1.70;;;;;;;17.75;100.00;98201.41;5073458;28;20203;-86
2023/07/16 04:39:48;;;;;;;3.60;1.70;;;;;;;17.69;100.00;98194.81;5072670;28;20203;-86
2023/07/16 04:42:16;;;;;;;3.23;2.10;;;;;;;17.66;100.00;98199.63;5073389;28;20230;-87
2023/07/16 04:44:43;;;;;;;3.00;2.33;;;;;;;17.67;100.00;98218.19;5073305;28;20208;-86
2023/07/16 04:47:09;;;;;;;2.80;2.00;;;;;;;17.66;100.00;98212.97;5073265;28;20235;-87
2023/07/16 04:49:36;;;;;;;2.20;2.00;;;;;;;17.71;100.00;98221.41;5072255;28;20234;-87
2023/07/16 04:52:03;;;;;;;4.00;2.07;;;;;;;17.74;100.00;98221.13;5072125;28;20203;-86
2023/07/16 04:54:29;;;;;;;2.60;2.03;;;;;;;17.81;100.00;98224.88;5072490;28;20698;-86
2023/07/16 04:56:57;;;;;;;3.20;2.10;;;;;;;17.85;100.00;98229.78;5072421;28;20203;-86
2023/07/16 04:59:24;;;;;;;2.37;1.93;;;;;;;17.87;100.00;98226.97;5071915;28;20235;-87
2023/07/16 05:01:50;;;;;;;2.20;2.00;;;;;;;17.88;100.00;98221.47;5072491;28;20216;-87
2023/07/16 05:04:16;;;;;;;3.00;2.10;;;;;;;17.89;100.00;98233.84;5072678;28;20238;-86
2023/07/16 05:06:43;;;;;;;3.50;1.83;;;;;;;17.88;100.00;98221.47;5072427;28;20480;-87
2023/07/16 05:09:10;;;;;;;3.17;1.97;;;;;;;17.87;100.00;98232.31;5071389;28;20228;-86
2023/07/16 05:11:37;;;;;;;2.67;2.20;;;;;;;17.84;100.00;98233.44;5072190;28;20218;-87
2023/07/16 05:14:06;;;;;;;3.87;1.80;;;;;;;17.83;100.00;98239.78;5072379;28;20284;-87
2023/07/16 05:16:32;;;;;;;3.67;2.10;;;;;;;17.88;100.00;98242.88;5071950;28;20208;-87
2023/07/16 05:18:59;;;;;;;2.43;2.00;;;;;;;17.91;100.00;98255.94;5072083;28;20315;-86
2023/07/16 05:21:25;;;;;;;2.20;1.83;;;;;;;17.98;100.00;98251.66;5071768;28;20204;-86
2023/07/16 05:23:52;;;;;;;2.73;1.80;;;;;;;18.06;100.00;98249.09;5071937;28;20298;-86
2023/07/16 05:26:18;;;;;;;5.00;2.10;;;;;;;18.13;100.00;98254.69;5071657;28;20242;-85
2023/07/16 05:28:45;;;;;;;4.80;1.90;;;;;;;18.12;100.00;98243.16;5071722;28;20610;-86
2023/07/16 05:31:12;;;;;;;2.60;1.77;;;;;;;18.14;100.00;98254.53;5071124;28;20203;-86
2023/07/16 05:33:39;;;;;;;2.30;1.70;;;;;;;18.19;100.00;98254.94;5071723;28;20761;-86
2023/07/16 05:36:05;;;;;;;4.03;1.87;;;;;;;18.25;100.00;98254.34;5071580;28;20595;-86
2023/07/16 05:38:32;;;;;;;3.97;1.97;;;;;;;18.35;100.00;98247.09;5071344;28;20227;-86
2023/07/16 05:41:01;;;;;;;2.93;1.93;;;;;;;18.48;100.00;98258.28;5070658;28;20227;-85
2023/07/16 05:43:28;;;;;;;2.20;2.00;;;;;;;18.52;100.00;98262.34;5071478;28;20685;-85
2023/07/16 05:45:54;;;;;;;3.07;2.10;;;;;;;18.56;100.00;98273.56;5071430;28;20772;-86
2023/07/16 05:48:22;;;;;;;2.83;1.80;;;;;;;18.58;100.00;98272.44;5071912;28;20239;-85
2023/07/16 05:50:48;;;;;;;3.60;2.13;;;;;;;18.63;100.00;98278.19;5070720;28;20203;-84
2023/07/16 05:53:15;;;;;;;2.90;1.73;;;;;;;18.74;100.00;98274.44;5071376;28;20565;-88
2023/07/16 05:55:42;;;;;;;2.33;1.90;;;;;;;18.83;100.00;98293.09;5071353;28;20697;-85
2023/07/16 05:58:08;;;;;;;3.87;1.70;;;;;;;18.95;100.00;98286.50;5071576;28;20223;-87
2023/07/16 06:00:35;;;;;;;3.73;1.77;;;;;;;19.08;100.00;98281.59;5070783;28;20372;-86
2023/07/16 06:03:02;;;;;;;3.17;1.60;;;;;;;19.20;100.00;98277.69;5071359;28;20692;-87
2023/07/16 06:05:32;;;;;;;2.00;1.70;;;;;;;19.30;100.00;98278.47;5070399;28;20682;-86
2023/07/16 06:07:58;;;;;;;3.20;1.60;;;;;;;19.34;100.00;98266.44;5071049;28;20694;-87
2023/07/16 06:10:25;;;;;;;2.57;1.80;;;;;;;19.44;100.00;98267.16;5070653;28;20211;-87
2023/07/16 06:12:51;;;;;;;3.33;1.90;;;;;;;19.62;100.00;98265.25;5071324;28;20680;-87
2023/07/16 06:15:18;;;;;;;3.40;1.60;;;;;;;19.65;100.00;98264.97;5071079;28;20226;-87
2023/07/16 06:17:44;;;;;;;3.40;2.20;;;;;;;19.63;100.00;98277.66;5071155;28;20219;-87
2023/07/16 06:20:11;;;;;;;2.50;1.90;;;;;;;19.57;100.00;98294.38;5070416;28;20230;-87
2023/07/16 06:22:39;;;;;;;3.30;1.50;;;;;;;19.52;100.00;98288.66;5071313;28;20211;-87
2023/07/16 06:25:06;;;;;;;3.47;1.60;;;;;;;19.57;100.00;98306.97;5071274;28;20207;-87
2023/07/16 06:27:33;;;;;;;3.40;2.13;;;;;;;19.48;100.00;98300.69;5070736;28;20227;-87
2023/07/16 06:29:59;;;;;;;2.93;1.80;;;;;;;19.51;100.00;98295.00;5070374;28;20230;-87
2023/07/16 06:32:26;;;;;;;2.97;1.70;;;;;;;19.47;100.00;98290.13;5071389;28;20580;-87
2023/07/16 06:34:52;;;;;;;3.20;2.03;;;;;;;19.49;100.00;98296.16;5070986;28;20208;-87
2023/07/16 06:37:19;;;;;;;3.90;1.80;;;;;;;19.55;100.00;98288.34;5070867;28;20199;-86
2023/07/16 06:39:46;;;;;;;4.33;2.00;;;;;;;19.60;100.00;98288.72;5070334;28;20229;-86
2023/07/16 06:42:13;;;;;;;2.73;1.73;;;;;;;19.70;100.00;98292.13;5071145;28;20218;-86
2023/07/16 06:44:39;;;;;;;3.30;2.03;;;;;;;19.83;100.00;98284.50;5071093;28;20211;-86
2023/07/16 06:47:06;;;;;;;4.67;1.83;;;;;;;19.96;100.00;98292.94;5070886;28;20365;-88
2023/07/16 06:49:32;;;;;;;3.70;1.70;;;;;;;20.12;100.00;98279.63;5070954;28;20300;-85
2023/07/16 06:52:01;;;;;;;3.50;1.60;;;;;;;20.19;100.00;98290.56;5080069;28;20216;-85
2023/07/16 06:54:28;;;;;;;1.67;1.57;;;;;;;20.29;100.00;98281.34;5082576;28;20601;-86
2023/07/16 06:56:56;;;;;;;3.17;1.80;;;;;;;20.42;100.00;98273.69;5079190;28;20272;-86
2023/07/16 06:59:22;;;;;;;5.93;2.13;;;;;;;20.55;100.00;98274.03;5077072;28;20748;-84
2023/07/16 07:01:49;;;;;;;3.17;1.77;;;;;;;20.75;100.00;98278.13;5075873;28;20219;-87
2023/07/16 07:04:15;;;;;;;2.17;1.50;;;;;;;20.96;100.00;98289.25;5076897;28;20239;-86
2023/07/16 07:06:51;;;;;;;3.90;1.80;;;;;;;21.16;100.00;98287.91;5077353;28;20741;-86
2023/07/16 07:09:18;;;;;;;4.10;1.93;;;;;;;21.37;100.00;98290.09;5076467;28;20227;-86
2023/07/16 07:11:44;;;;;;;2.57;1.43;;;;;;;21.47;95.77;98280.00;5079012;28;20261;-86
2023/07/16 07:14:12;;;;;;;3.43;1.60;;;;;;;21.52;94.63;98278.47;5076587;28;20207;-86
2023/07/16 07:16:39;;;;;;;3.50;1.80;;;;;;;21.43;95.40;98284.03;5073678;28;20211;-86
2023/07/16 07:19:06;;;;;;;3.83;1.90;;;;;;;21.33;98.48;98278.84;5074630;28;20729;-86
2023/07/16 07:21:32;;;;;;;2.80;1.80;;;;;;;21.29;100.00;98288.28;5075159;28;20208;-86
2023/07/16 07:23:59;;;;;;;3.40;1.80;;;;;;;21.28;99.07;98289.25;5074753;28;20206;-85
2023/07/16 07:26:25;;;;;;;3.60;1.77;;;;;;;21.36;97.83;98278.50;5074557;28;20207;-86
2023/07/16 07:28:53;;;;;;;3.40;1.70;;;;;;;21.44;99.02;98275.81;5073203;28;20235;-85
2023/07/16 07:31:20;;;;;;;3.50;1.40;;;;;;;21.65;96.90;98272.56;5073363;28;20753;-85
2023/07/16 07:33:47;;;;;;;3.33;1.67;;;;;;;21.80;89.33;98246.66;5072052;28;20234;-85
2023/07/16 07:36:13;;;;;;;3.97;2.30;;;;;;;21.94;88.99;98268.31;5071211;28;20207;-76
2023/07/16 07:38:40;;;;;;;1.80;1.50;;;;;;;22.17;88.48;98285.41;5071101;28;20223;-84
2023/07/16 07:41:07;;;;;;;3.63;1.70;;;;;;;22.25;83.38;98266.50;5070417;28;20218;-84
2023/07/16 07:43:33;;;;;;;3.20;1.70;;;;;;;22.29;78.93;98262.44;5071079;28;20200;-84
2023/07/16 07:46:00;;;;;;;2.17;1.57;;;;;;;22.17;78.18;98274.63;5072219;28;20208;-84
2023/07/16 07:48:31;;;;;;;2.77;1.90;;;;;;;22.25;81.70;98279.16;5060566;28;20234;-84
2023/07/16 07:50:57;;;;;;;4.50;1.60;;;;;;;22.40;79.52;98275.53;5049039;28;20212;-84
2023/07/16 07:53:24;;;;;;;2.23;1.47;;;;;;;22.67;77.01;98260.75;5050682;28;20208;-84
2023/07/16 07:55:50;;;;;;;5.93;1.87;;;;;;;22.71;71.36;98238.66;5053213;28;20208;-84
2023/07/16 07:58:17;;;;;;;3.60;2.00;;;;;;;22.87;72.34;98240.41;5051625;28;20091;-84
2023/07/16 08:00:43;;;;;;;3.47;1.90;;;;;;;23.03;74.81;98251.88;5050525;28;20241;-87
2023/07/16 08:03:10;;;;;;;4.40;2.03;;;;;;;23.12;75.63;98266.16;5050931;28;20219;-88
2023/07/16 08:05:38;;;;;;;2.70;1.90;;;;;;;23.02;74.41;98274.47;5051232;28;20219;-84
2023/07/16 08:08:05;;;;;;;3.90;1.77;;;;;;;23.11;75.47;98276.09;5051720;28;20235;-84
2023/07/16 08:10:31;;;;;;;3.17;1.70;;;;;;;23.26;73.27;98271.63;5053084;28;20215;-84
2023/07/16 08:12:58;;;;;;;2.90;1.60;;;;;;;23.41;70.57;98253.59;5053195;28;20224;-85
2023/07/16 08:15:24;;;;;;;2.87;1.67;;;;;;;23.24;69.41;98251.25;5053788;28;20208;-84
2023/07/16 08:17:51;;;;;;;3.70;1.80;;;;;;;22.99;69.82;98250.56;5053833;28;20785;-84
2023/07/16 08:20:17;;;;;;;6.53;1.70;;;;;;;22.96;72.10;98259.03;5053076;28;20215;-83
2023/07/16 08:22:45;;;;;;;3.07;1.70;;;;;;;22.97;72.46;98252.59;5053339;28;20211;-84
2023/07/16 08:25:12;;;;;;;2.07;1.63;;;;;;;22.91;71.88;98257.91;5053290;28;20215;-76
2023/07/16 08:27:38;;;;;;;2.77;1.80;;;;;;;22.94;70.87;98253.00;5051773;28;20581;-80
2023/07/16 08:30:06;;;;;;;5.53;1.83;;;;;;;23.12;72.11;98256.22;5052206;28;20216;-80
2023/07/16 08:32:32;;;;;;;3.53;1.80;;;;;;;23.19;71.10;98246.41;5053286;28;20208;-80
2023/07/16 08:34:59;;;;;;;2.50;1.77;;;;;;;23.39;69.82;98241.31;5053166;28;20219;-80
2023/07/16 08:37:25;;;;;;;3.67;2.10;;;;;;;23.52;67.70;98214.56;5066812;28;20199;-80
2023/07/16 08:39:54;;;;;;;4.80;1.80;;;;;;;23.42;65.02;98193.22;5078574;28;20584;-82
2023/07/16 08:42:21;;;;;;;2.53;1.70;;;;;;;23.66;64.22;98205.63;5072840;28;20211;-82
2023/07/16 08:44:49;;;;;;;3.00;1.80;;;;;;;23.69;60.49;98189.06;5072993;28;20211;-82
2023/07/16 08:47:16;;;;;;;3.67;1.67;;;;;;;24.01;64.14;98232.72;5072698;28;20253;-87
2023/07/16 08:49:49;;;;;;;3.57;1.67;;;;;;;24.27;64.20;98216.84;5072963;28;20214;-87
2023/07/16 08:52:18;;;;;;;2.43;1.60;;;;;;;24.52;60.80;98209.25;5073713;28;20211;-89
2023/07/16 08:54:44;;;;;;;2.93;1.70;;;;;;;24.54;56.44;98181.00;5073370;28;20209;-87
2023/07/16 08:57:13;;;;;;;3.53;2.13;;;;;;;24.66;57.90;98195.72;5072884;28;20198;-87
2023/07/16 08:59:40;;;;;;;2.27;1.60;;;;;;;24.82;58.45;98208.97;5069881;28;20223;-87
2023/07/16 09:02:07;;;;;;;1.63;1.43;;;;;;;25.04;57.48;98221.47;5070595;28;20219;-87
2023/07/16 09:04:34;;;;;;;3.20;1.50;;;;;;;25.03;54.72;98208.13;5070131;28;20204;-87
2023/07/16 09:07:00;;;;;;;5.10;1.60;;;;;;;24.82;55.59;98219.78;5069760;28;20203;-89
2023/07/16 09:09:27;;;;;;;3.10;1.67;;;;;;;24.48;55.05;98214.22;5068938;28;20746;-89
2023/07/16 09:11:54;;;;;;;2.57;1.47;;;;;;;24.12;58.22;98245.75;5071874;28;20211;-89
2023/07/16 09:14:22;;;;;;;3.20;2.07;;;;;;;23.92;61.35;98255.47;5071575;28;20218;-89
2023/07/16 09:16:50;;;;;;;2.77;2.00;;;;;;;23.90;65.14;98254.78;5070827;28;20218;-87
2023/07/16 09:19:18;;;;;;;3.10;1.93;;;;;;;23.89;65.81;98255.81;5070230;28;20235;-89
2023/07/16 09:21:47;;;;;;;3.23;1.60;;;;;;;24.03;64.88;98257.69;5071415;28;20265;-88
2023/07/16 09:24:14;;;;;;;3.87;2.00;;;;;;;24.32;65.57;98263.06;5070880;28;20211;-88
2023/07/16 09:26:48;;;;;;;3.10;2.00;;;;;;;24.61;66.50;98265.72;5071642;28;20212;-88
2023/07/16 09:29:15;;;;;;;3.40;2.00;;;;;;;24.67;59.00;98224.44;5072903;22;20235;-84
2023/07/16 09:31:54;;;;;;;3.33;2.10;;;;;;;24.66;61.06;98233.56;5050385;28;20211;-84
2023/07/16 09:34:20;;;;;;;4.67;2.10;;;;;;;24.42;58.19;98214.97;5051067;28;20215;-85
2023/07/16 09:36:48;;;;;;;4.07;2.07;;;;;;;24.49;58.10;98223.97;5051238;28;20347;-85
2023/07/16 09:39:16;;;;;;;2.83;1.90;;;;;;;24.40;56.50;98222.44;5048865;28;20235;-84
2023/07/16 09:41:44;;;;;;;2.63;1.80;;;;;;;24.34;57.32;98225.91;5050817;28;20701;-85
2023/07/16 09:44:12;;;;;;;3.43;2.00;;;;;;;24.20;58.61;98237.56;5050628;28;20204;-84
2023/07/16 09:46:39;;;;;;;4.40;2.40;;;;;;;24.10;59.24;98237.03;5049919;28;20212;-85
2023/07/16 09:49:07;;;;;;;4.70;2.10;;;;;;;24.04;58.44;98224.28;5050339;28;20240;-85
2023/07/16 09:51:36;;;;;;;5.57;2.13;;;;;;;23.80;59.04;98227.22;5050732;28;20208;-85
2023/07/16 09:54:03;;;;;;;3.33;2.30;;;;;;;23.67;59.95;98234.28;5049967;28;20228;-85
2023/07/16 09:56:35;;;;;;;2.80;1.60;;;;;;;23.58;58.17;98233.53;5050577;28;20208;-85
2023/07/16 09:59:02;;;;;;;3.27;2.13;;;;;;;23.42;59.03;98235.56;5050015;28;20238;-85
2023/07/16 10:01:30;;;;;;;3.27;2.00;;;;;;;23.30;59.43;98224.41;5049335;28;20222;-85
2023/07/16 10:03:56;;;;;;;3.30;2.27;;;;;;;23.30;59.40;98227.09;5050621;28;20211;-85
2023/07/16 10:06:24;;;;;;;6.20;3.17;;;;;;;23.27;59.74;98238.22;5050484;28;20602;-85
2023/07/16 10:08:51;;;;;;;7.20;4.23;;;;;;;23.28;59.74;98239.91;5049291;28;20771;-85
2023/07/16 10:11:19;;;;;;;8.63;4.43;;;;;;;23.33;59.21;98226.72;5049534;28;20228;-85
2023/07/16 10:13:50;;;;;;;6.97;4.07;;;;;;;23.30;58.55;98229.78;5050141;28;20219;-85
2023/07/16 10:16:22;;;;;;;7.33;4.23;;;;;;;23.22;59.57;98246.03;5049483;28;20217;-85
2023/07/16 10:18:53;;;;;;;6.83;3.73;;;;;;;23.24;63.31;98268.28;5049978;28;20330;-85
2023/07/16 10:21:25;;;;;;;5.97;3.57;;;;;;;23.20;59.63;98237.28;5049564;28;20587;-85
2023/07/16 10:23:58;;;;;;;2.90;1.80;;;;;;;23.26;58.08;98220.38;5067812;28;20434;-84
2023/07/16 10:26:28;;;;;;;3.33;1.93;;;;;;;23.25;63.05;98259.16;5068040;28;20215;-83
2023/07/16 10:28:55;;;;;;;2.93;2.13;;;;;;;23.53;59.88;98232.44;5067848;28;20231;-84
2023/07/16 10:31:23;;;;;;;3.43;1.97;;;;;;;23.60;59.09;98226.09;5067338;28;20207;-84
2023/07/16 10:34:04;;;;;;;3.27;1.80;;;;;;;23.55;59.64;98236.63;5068050;28;20751;-84
2023/07/16 10:36:38;;;;;;;6.63;2.43;;;;;;;23.55;60.51;98239.31;5070862;28;20210;-85
2023/07/16 10:39:05;;;;;;;4.37;2.10;;;;;;;23.65;57.67;98220.97;5067360;28;20227;-85
2023/07/16 10:41:32;;;;;;;2.80;1.80;;;;;;;23.64;56.35;98208.50;5067859;28;20212;-85
2023/07/16 10:43:59;;;;;;;4.17;2.13;;;;;;;23.43;59.01;98227.28;5068208;28;20258;-85
2023/07/16 10:46:26;;;;;;;3.10;1.90;;;;;;;23.50;59.56;98219.28;5067592;28;20218;-84
2023/07/16 10:48:52;;;;;;;2.97;1.80;;;;;;;23.64;58.33;98213.91;5069187;28;20261;-85
2023/07/16 10:51:25;;;;;;;3.10;1.83;;;;;;;23.89;59.09;98218.03;5072459;28;20207;-85
2023/07/16 10:53:56;;;;;;;3.73;1.97;;;;;;;24.17;57.72;98210.94;5071439;28;20211;-86
2023/07/16 10:56:23;;;;;;;3.20;1.90;;;;;;;24.33;56.11;98205.28;5074511;28;20211;-86
2023/07/16 10:58:49;;;;;;;2.83;1.90;;;;;;;24.65;53.56;98193.22;5074437;28;20219;-86
2023/07/16 11:01:16;;;;;;;4.00;2.50;;;;;;;24.73;54.18;98188.50;5074235;28;20207;-88
2023/07/16 11:03:42;;;;;;;3.40;2.00;;;;;;;24.69;55.49;98195.31;5074619;28;20294;-87
2023/07/16 11:06:11;;;;;;;2.30;1.70;;;;;;;25.02;54.19;98192.94;5074440;28;20213;-87
2023/07/16 11:08:38;;;;;;;2.60;1.90;;;;;;;24.85;53.18;98192.38;5073964;28;20239;-89
2023/07/16 11:11:06;;;;;;;5.33;2.03;;;;;;;24.90;53.16;98191.78;5073211;28;20200;-86
2023/07/16 11:13:33;;;;;;;4.93;2.13;;;;;;;24.72;54.21;98202.22;5074195;28;20587;-85
2023/07/16 11:16:08;;;;;;;5.27;2.37;;;;;;;24.37;54.45;98195.78;5074064;28;20686;-85
2023/07/16 11:18:34;;;;;;;3.77;1.83;;;;;;;24.14;55.44;98205.88;5073981;28;20234;-85
2023/07/16 11:21:01;;;;;;;2.83;2.20;;;;;;;24.09;55.51;98192.09;5073580;28;20207;-85
2023/07/16 11:23:27;;;;;;;3.73;2.10;;;;;;;24.14;56.68;98199.66;5061355;28;20580;-84
2023/07/16 11:25:54;;;;;;;3.37;2.40;;;;;;;24.21;58.53;98209.50;5043146;28;20259;-84
2023/07/16 11:28:21;;;;;;;2.80;2.13;;;;;;;24.40;55.75;98200.81;5046563;28;20231;-84
2023/07/16 11:30:48;;;;;;;2.30;1.73;;;;;;;24.42;55.46;98193.34;5053063;28;20216;-84